KMIC/MIC METAR and TAF weather

Enter ICAO airport designator
Station Type Date Time Source
KMIC METAR 2021/09/20 05:53 UTC NOAA

KMIC 200553Z AUTO 17013G32KT 10SM CLR 26/17 A2974 RMK AO2 PK WND 19032/0547 SLP064 T02560167 10294 20256 403220194 58010


Station Type Date Time Source
KMIC Decoded METAR 2021/09/20 05:53 UTC NOAA

CRYSTAL AIRPORT, MN, United States (KMIC) 45-04N 093-21W 265M
Sep 20, 2021 - 01:53 AM EDT / 2021.09.20 0553 UTC
Wind: from the S (170 degrees) at 15 MPH (13 KT) gusting to 37 MPH (32 KT):0
Visibility: 10 mile(s):0
Sky conditions: clear
Temperature: 78.1 F (25.6 C)
Dew Point: 62.1 F (16.7 C)
Relative Humidity: 57%
Pressure (altimeter): 29.74 in. Hg (1007 hPa)
Pressure tendency: 0.03 inches (1.0 hPa) lower than three hours ago
ob: KMIC 200553Z AUTO 17013G32KT 10SM CLR 26/17 A2974 RMK AO2 PK WND 19032/0547 SLP064 T02560167 10294 20256 403220194 58010
cycle: 6

Station Type Date Time Source
KMIC TAF UTC NOAA

Error!

Example: see airport list